If you wish to contribute or participate in the discussions about articles you are invited to join SKYbrary as a registered user

 Actions

Nancy-Essey Airport

From SKYbrary Wiki

LFSN
Airport
ICAO: LFSN – IATA: ENC
Summary
Name Nancy-Essey Airport
Region Europe
Territory France FR.gif
Location , Lorraine
Serving Nancy
Elevation 228.905 m
751 ft
751 ft228.905 m
Type medium airport
Coordinates 48° 41' 31.45" N, 6° 13' 49.65" E
Runways
Designator Length Width Surface ROPS
3/21 1400 m4,593.176 ft
40 m131.234 ft
ASP yes/yes


METAR
Observation LFSN 262030Z AUTO 16003KT 140V220 9999 SCT012/// BKN024/// BKN029/// ///TCU 02/01 Q1010
Station Nancy / Essey
Date/Time 26 February 2020 20:30:00
Wind direction 160°
Wind speed 03 kts
Lowest cloud amount scattered clouds
Temperature 2°C
Dew point 1°C
Humidity 93%
QNH 1010 hPa
Weather condition n/a